Time;durP1;ratioP1;P1;durP2;ratioP2;P2;SDS_P1;SDS_P2;PMS_P1;PMS_P2;Temp;Humidity;BMP_temperature;BMP_pressure;BME280_temperature;BME280_humidity;BME280_pressure;Samples;Min_cycle;Max_cycle;Signal;HPM_P1;HPM_P2
2023/01/31 00:01:49;;;;;;;8.37;2.60;;;7.40;78.10;;;10.22;54.59;101839.56;5034084;28;20198;-52
2023/01/31 00:04:16;;;;;;;9.67;3.00;;;7.40;78.00;;;10.20;54.12;101842.31;5050470;28;20221;-51
2023/01/31 00:06:49;;;;;;;12.83;2.87;;;7.40;78.30;;;10.20;54.71;101835.28;5053941;28;20220;-55
2023/01/31 00:09:16;;;;;;;8.33;2.93;;;7.40;78.60;;;10.22;54.97;101829.06;5054486;28;20221;-53
2023/01/31 00:11:43;;;;;;;12.30;2.83;;;7.40;78.70;;;10.22;54.23;101835.16;5039764;28;20221;-57
2023/01/31 00:14:18;;;;;;;10.10;3.13;;;7.40;78.70;;;10.18;54.46;101823.22;5035299;28;20195;-53
2023/01/31 00:16:47;;;;;;;11.97;3.43;;;7.40;78.80;;;10.17;55.13;101821.59;5035078;28;20244;-54
2023/01/31 00:19:14;;;;;;;16.97;3.67;;;7.40;78.60;;;10.15;54.40;101819.09;5035847;28;20203;-51
2023/01/31 00:21:42;;;;;;;12.00;3.53;;;7.30;78.60;;;10.13;55.08;101815.78;5036588;28;20658;-53
2023/01/31 00:24:11;;;;;;;14.13;3.63;;;7.30;78.70;;;10.13;54.68;101814.94;5034044;28;20214;-53
2023/01/31 00:26:38;;;;;;;9.00;2.83;;;7.30;78.90;;;10.10;54.45;101825.75;5033606;28;20559;-53
2023/01/31 00:29:05;;;;;;;11.63;3.23;;;7.30;78.80;;;10.08;54.71;101827.66;5033668;28;20570;-52
2023/01/31 00:31:34;;;;;;;13.60;2.80;;;7.30;78.80;;;10.05;55.06;101823.56;5034128;28;20244;-52
2023/01/31 00:34:02;;;;;;;12.77;3.23;;;7.30;79.00;;;10.01;54.87;101813.44;5034054;28;20225;-52
2023/01/31 00:36:33;;;;;;;13.73;3.60;;;7.20;78.90;;;10.00;55.05;101819.69;5033465;28;20195;-52
2023/01/31 00:39:04;;;;;;;11.63;3.40;;;7.20;79.10;;;10.01;55.04;101816.06;5034083;28;20221;-52
2023/01/31 00:41:32;;;;;;;12.43;3.33;;;7.20;79.30;;;10.03;55.62;101809.69;5033370;28;20178;-55
2023/01/31 00:43:59;;;;;;;12.53;3.80;;;7.20;79.60;;;10.03;55.26;101814.16;5033456;28;20717;-55
2023/01/31 00:46:27;;;;;;;13.73;3.70;;;7.20;79.40;;;10.02;54.90;101823.00;5033222;28;20633;-53
2023/01/31 00:48:55;;;;;;;18.23;4.00;;;7.20;79.50;;;10.01;55.44;101823.97;5033764;28;20268;-53
2023/01/31 00:51:25;;;;;;;14.83;4.20;;;7.20;79.40;;;9.99;54.92;101823.28;5035621;28;20590;-54
2023/01/31 00:53:53;;;;;;;14.77;3.30;;;7.20;79.40;;;9.97;55.56;101819.97;5037471;28;20199;-52
2023/01/31 00:56:23;;;;;;;17.03;3.77;;;7.20;79.60;;;9.96;55.83;101827.03;5037312;28;20690;-54
2023/01/31 00:58:50;;;;;;;15.40;4.00;;;7.10;79.90;;;9.97;55.90;101827.84;5039073;28;20269;-52
2023/01/31 01:01:21;;;;;;;14.37;3.63;;;7.10;80.10;;;9.98;55.53;101821.63;5046589;28;20195;-53
2023/01/31 01:03:48;;;;;;;9.93;3.73;;;7.20;80.30;;;9.99;56.01;101820.66;5037729;28;20655;-52
2023/01/31 01:06:15;;;;;;;16.53;4.53;;;7.10;80.30;;;10.01;56.01;101821.31;5037264;28;20277;-56
2023/01/31 01:08:45;;;;;;;14.33;4.03;;;7.10;80.70;;;10.03;55.94;101819.41;5037726;28;20217;-54
2023/01/31 01:11:15;;;;;;;13.10;3.73;;;7.20;80.90;;;10.06;55.64;101834.88;5037145;28;20241;-51
2023/01/31 01:13:44;;;;;;;12.73;3.33;;;7.20;80.90;;;10.08;55.90;101827.66;5037259;28;20543;-53
2023/01/31 01:16:15;;;;;;;12.93;3.90;;;7.20;81.00;;;10.09;56.10;101837.22;5036887;28;20187;-52
2023/01/31 01:18:45;;;;;;;15.97;4.10;;;7.20;81.00;;;10.09;55.81;101834.59;5036972;28;20270;-53
2023/01/31 01:21:16;;;;;;;15.23;4.37;;;7.30;81.10;;;10.08;56.21;101839.03;5036979;28;20245;-53
2023/01/31 01:23:48;;;;;;;12.40;3.37;;;7.20;81.90;;;10.08;56.02;101832.94;5036728;28;20201;-53
2023/01/31 01:26:19;;;;;;;16.23;3.97;;;7.20;81.40;;;10.05;56.56;101836.72;5036445;28;20728;-54
2023/01/31 01:28:47;;;;;;;9.67;3.50;;;7.20;81.40;;;10.07;55.95;101841.81;5036668;28;20214;-53
2023/01/31 01:31:17;;;;;;;13.47;3.47;;;7.30;82.00;;;10.07;56.69;101834.75;5036691;28;20233;-52
2023/01/31 01:33:45;;;;;;;8.23;2.93;;;7.30;81.40;;;10.11;56.42;101833.50;5035726;28;20313;-52
2023/01/31 01:36:16;;;;;;;13.03;3.10;;;7.20;81.30;;;10.15;55.97;101826.16;5035900;28;20244;-54
2023/01/31 01:38:45;;;;;;;9.73;2.57;;;7.20;81.40;;;10.17;56.23;101837.38;5036799;28;20233;-52
2023/01/31 01:41:13;;;;;;;13.57;4.10;;;7.30;81.40;;;10.16;56.16;101830.44;5036588;28;20191;-53
2023/01/31 01:43:46;;;;;;;9.27;2.73;;;7.30;81.10;;;10.13;56.44;101836.00;5036749;28;20206;-53
2023/01/31 01:46:21;;;;;;;8.17;2.30;;;7.30;80.90;;;10.13;56.49;101825.47;5036180;28;20213;-53
2023/01/31 01:48:53;;;;;;;11.27;2.87;;;7.30;80.70;;;10.09;56.03;101834.59;5036648;28;20221;-53
2023/01/31 01:51:22;;;;;;;9.83;2.60;;;7.30;80.60;;;10.09;56.04;101847.75;5036531;28;20198;-54
2023/01/31 01:53:57;;;;;;;10.93;3.03;;;7.30;80.70;;;10.06;56.24;101840.97;5038863;28;20714;-53
2023/01/31 01:56:31;;;;;;;10.17;2.80;;;7.30;80.70;;;10.05;56.45;101841.13;5049702;28;20289;-53
2023/01/31 01:59:05;;;;;;;10.43;2.90;;;7.30;80.70;;;10.02;56.19;101849.31;5056557;28;20206;-52
2023/01/31 02:01:37;;;;;;;10.97;3.00;;;7.30;80.90;;;10.00;56.28;101861.78;5057078;28;20184;-53
2023/01/31 02:04:12;;;;;;;7.87;3.10;;;7.30;81.10;;;9.98;56.58;101858.47;5057099;28;20198;-53
2023/01/31 02:06:40;;;;;;;8.57;2.57;;;7.30;81.20;;;9.98;56.95;101853.19;5055730;28;20209;-54
2023/01/31 02:09:19;;;;;;;10.67;2.63;;;7.30;81.40;;;9.95;57.29;101856.09;5036991;28;20218;-53
2023/01/31 02:11:46;;;;;;;10.27;2.57;;;7.20;81.20;;;9.97;56.53;101859.41;5038298;28;20210;-52
2023/01/31 02:14:15;;;;;;;11.40;2.40;;;7.30;81.40;;;9.99;57.12;101854.84;5036896;28;20186;-53
2023/01/31 02:16:42;;;;;;;8.37;2.97;;;7.20;81.50;;;10.03;56.84;101861.50;5035983;28;20237;-53
2023/01/31 02:19:21;;;;;;;14.63;3.00;;;7.20;82.30;;;10.03;57.76;101864.13;5034339;28;20222;-52
2023/01/31 02:22:13;;;;;;;10.40;3.20;;;7.20;82.50;;;10.02;57.77;101873.81;5035674;28;20202;-55
2023/01/31 02:25:56;;;;;;;10.17;3.47;;;7.20;83.00;;;10.05;57.42;101880.59;5035802;28;20229;-55
2023/01/31 02:29:16;;;;;;;10.33;3.10;;;7.30;83.10;;;10.07;57.61;101878.63;5035835;28;20225;-53
2023/01/31 02:32:16;;;;;;;15.37;3.80;;;7.30;83.40;;;10.13;57.71;101878.91;5035172;28;20213;-54
2023/01/31 02:34:54;;;;;;;16.77;4.20;;;7.30;83.50;;;10.17;57.75;101869.75;5035190;28;20213;-55
2023/01/31 02:37:32;;;;;;;17.00;4.17;;;7.30;83.90;;;10.23;57.42;101868.34;5034433;28;20651;-53
2023/01/31 02:40:15;;;;;;;15.60;3.70;;;7.40;83.80;;;10.25;57.55;101869.03;5036129;28;20199;-55
2023/01/31 02:42:57;;;;;;;10.77;4.00;;;7.40;83.90;;;10.30;57.92;101869.44;5035617;28;20599;-51
2023/01/31 02:45:38;;;;;;;12.23;4.50;;;7.40;83.80;;;10.30;57.45;101864.19;5034676;28;20618;-51
2023/01/31 02:48:18;;;;;;;13.60;3.67;;;7.50;83.90;;;10.28;57.91;101860.03;5034555;28;20218;-53
2023/01/31 02:50:59;;;;;;;17.07;3.97;;;7.40;83.80;;;10.27;57.99;101869.72;5034372;28;20552;-55
2023/01/31 02:53:32;;;;;;;23.70;4.33;;;7.40;83.70;;;10.25;58.01;101866.41;5034990;28;20203;-52
2023/01/31 02:56:16;;;;;;;13.50;4.43;;;7.40;83.80;;;10.22;58.50;101864.09;5034557;28;20219;-54
2023/01/31 02:58:53;;;;;;;14.77;3.60;;;7.50;83.90;;;10.21;58.23;101870.31;5035356;28;20268;-54
2023/01/31 03:01:27;;;;;;;19.40;3.73;;;7.40;83.70;;;10.24;58.35;101858.66;5035403;28;20631;-53
2023/01/31 03:04:02;;;;;;;17.17;4.33;;;7.40;83.70;;;10.26;58.04;101854.91;5034903;28;20218;-54
2023/01/31 03:07:01;;;;;;;10.63;3.50;;;7.40;83.80;;;10.24;57.73;101846.34;5035027;28;20210;-54
2023/01/31 03:09:50;;;;;;;17.70;4.23;;;7.40;83.70;;;10.23;57.90;101841.22;5034788;28;20210;-52
2023/01/31 03:12:48;;;;;;;16.93;3.63;;;7.40;83.70;;;10.19;57.70;101835.44;5034784;28;20179;-54
2023/01/31 03:18:35;;;;;;;15.83;3.67;;;7.40;83.40;;;10.09;58.28;101829.34;5015425;28;20231;-54
2023/01/31 03:21:09;;;;;;;14.97;4.43;;;7.40;83.30;;;10.08;58.34;101811.88;5015837;28;20203;-53
2023/01/31 03:23:39;;;;;;;16.13;3.23;;;7.40;83.40;;;10.08;57.90;101817.16;5015216;28;20179;-52
2023/01/31 03:26:08;;;;;;;16.27;3.70;;;7.30;83.20;;;10.09;58.19;101819.66;5014625;28;20226;-52
2023/01/31 03:28:41;;;;;;;13.80;3.70;;;7.30;83.30;;;10.08;58.38;101811.88;5014951;28;20684;-56
2023/01/31 03:31:17;;;;;;;17.53;4.23;;;7.30;83.10;;;10.02;58.27;101823.84;5014535;28;20238;-55
2023/01/31 03:33:51;;;;;;;10.10;3.13;;;7.30;82.90;;;9.99;57.75;101823.28;5033656;28;20229;-54
2023/01/31 03:36:32;;;;;;;16.60;3.37;;;7.30;82.80;;;9.95;57.88;101828.00;5033302;28;20199;-54
2023/01/31 03:39:12;;;;;;;15.83;3.83;;;7.30;82.60;;;9.95;57.84;101827.19;5034755;28;20212;-55
2023/01/31 03:41:55;;;;;;;16.10;3.80;;;7.30;82.50;;;9.95;57.60;101824.53;5035138;28;20197;-52
2023/01/31 03:44:34;;;;;;;13.37;3.57;;;7.30;82.30;;;9.92;57.25;101827.47;5034150;28;20187;-60
2023/01/31 03:47:10;;;;;;;15.87;3.97;;;7.30;82.20;;;9.88;57.63;101831.34;5033949;28;20206;-52
2023/01/31 03:49:41;;;;;;;13.67;3.60;;;7.20;82.10;;;9.89;58.03;101822.50;5033744;28;20221;-54
2023/01/31 03:52:16;;;;;;;14.90;3.70;;;7.20;82.20;;;9.85;57.21;101829.00;5032096;28;20210;-52
2023/01/31 03:54:53;;;;;;;20.23;3.83;;;7.20;82.00;;;9.83;57.72;101830.94;5034248;28;20178;-55
2023/01/31 03:57:24;;;;;;;16.37;3.60;;;7.10;82.00;;;9.77;57.32;101823.66;5033963;28;20182;-53
2023/01/31 03:59:56;;;;;;;16.53;3.80;;;7.10;81.80;;;9.72;57.49;101823.25;5033115;28;20187;-55
2023/01/31 04:02:32;;;;;;;10.77;2.93;;;7.10;81.80;;;9.69;57.61;101821.72;5034432;28;20190;-53
2023/01/31 04:05:06;;;;;;;17.33;3.83;;;7.00;81.80;;;9.69;57.44;101820.88;5035456;28;20623;-55
2023/01/31 04:07:36;;;;;;;18.13;4.07;;;7.00;81.90;;;9.66;57.54;101816.75;5034912;28;20213;-53
2023/01/31 04:10:10;;;;;;;14.50;4.00;;;7.00;82.00;;;9.64;57.80;101823.94;5034955;28;20550;-53
2023/01/31 04:12:38;;;;;;;11.83;3.63;;;6.90;82.00;;;9.65;57.75;101832.66;5033632;28;20206;-52
2023/01/31 04:15:07;;;;;;;13.30;4.37;;;6.90;82.40;;;9.64;57.54;101823.09;5033525;28;20205;-53
2023/01/31 04:17:34;;;;;;;11.90;3.10;;;6.90;83.30;;;9.64;57.80;101812.59;5033265;28;20191;-52
2023/01/31 04:20:03;;;;;;;20.33;4.37;;;6.80;82.40;;;9.63;57.59;101832.78;5033498;28;20194;-55
2023/01/31 04:22:30;;;;;;;12.37;3.17;;;6.80;82.40;;;9.62;57.25;101825.88;5034490;28;20256;-54
2023/01/31 04:24:58;;;;;;;21.33;3.53;;;6.80;82.40;;;9.62;57.67;101822.41;5034138;28;20190;-52
2023/01/31 04:27:25;;;;;;;17.57;3.40;;;6.80;82.30;;;9.61;57.55;101828.63;5037725;28;20206;-52
2023/01/31 04:29:52;;;;;;;12.57;3.37;;;6.80;82.20;;;9.63;57.67;101829.34;5037587;28;20198;-53
2023/01/31 04:32:19;;;;;;;11.20;3.40;;;6.80;82.30;;;9.66;57.33;101815.91;5041521;28;20190;-54
2023/01/31 04:34:46;;;;;;;8.57;2.67;;;6.80;82.40;;;9.68;56.97;101824.47;5037262;28;20663;-54
2023/01/31 04:37:12;;;;;;;12.50;3.33;;;6.80;82.20;;;9.70;56.96;101822.56;5035970;28;20201;-52
2023/01/31 04:39:39;;;;;;;10.43;2.80;;;6.80;82.20;;;9.70;57.24;101809.41;5037404;28;20218;-54
2023/01/31 04:42:08;;;;;;;17.53;3.73;;;6.80;82.10;;;9.71;57.28;101809.25;5037798;28;20298;-51
2023/01/31 04:44:35;;;;;;;9.50;2.57;;;6.80;82.20;;;9.72;57.01;101817.97;5026796;28;20195;-52
2023/01/31 04:47:02;;;;;;;15.07;3.70;;;6.80;82.10;;;9.71;57.09;101816.31;5037477;28;20206;-56
2023/01/31 04:49:29;;;;;;;13.30;3.30;;;6.80;81.90;;;9.72;57.15;101815.34;5037798;28;20281;-52
2023/01/31 04:51:56;;;;;;;13.00;3.20;;;6.80;81.90;;;9.70;56.60;101812.03;5037484;28;20198;-52
2023/01/31 04:54:23;;;;;;;10.60;4.13;;;6.80;81.70;;;9.72;56.62;101807.47;5037118;28;20191;-55
2023/01/31 04:56:50;;;;;;;10.90;2.80;;;6.80;81.90;;;9.74;57.15;101802.88;5037136;28;20197;-53
2023/01/31 04:59:18;;;;;;;11.53;2.80;;;6.80;81.90;;;9.79;56.51;101811.19;5036731;28;20207;-54
2023/01/31 05:01:45;;;;;;;11.40;3.30;;;6.80;81.90;;;9.80;56.68;101797.03;5037604;28;20201;-55
2023/01/31 05:04:12;;;;;;;10.13;2.90;;;6.90;82.00;;;9.80;56.88;101797.03;5037358;28;20202;-55
2023/01/31 05:06:39;;;;;;;16.23;3.10;;;6.80;81.90;;;9.80;57.07;101789.16;5036796;28;20221;-53
2023/01/31 05:09:06;;;;;;;8.37;2.90;;;6.90;82.60;;;9.82;56.55;101792.47;5036931;28;20209;-55
2023/01/31 05:11:33;;;;;;;10.83;3.50;;;6.90;81.80;;;9.80;56.99;101783.91;5037168;28;20674;-53
2023/01/31 05:14:00;;;;;;;14.80;3.30;;;6.90;81.70;;;9.83;56.94;101791.50;5036767;28;20194;-55
2023/01/31 05:16:28;;;;;;;12.50;3.23;;;6.90;81.70;;;9.84;56.61;101785.28;5036754;28;20583;-53
2023/01/31 05:18:56;;;;;;;12.37;3.27;;;6.90;81.70;;;9.84;56.40;101782.66;5036910;28;20214;-53
2023/01/31 05:21:22;;;;;;;14.30;3.20;;;6.90;81.50;;;9.87;56.76;101774.47;5036565;28;20190;-51
2023/01/31 05:23:49;;;;;;;11.27;3.77;;;7.00;81.80;;;9.93;56.88;101781.78;5037184;28;20196;-51
2023/01/31 05:26:16;;;;;;;8.37;3.03;;;7.00;81.80;;;9.93;56.63;101771.28;5036240;28;20194;-57
2023/01/31 05:28:43;;;;;;;12.03;4.00;;;7.00;81.60;;;9.92;56.59;101766.97;5034824;28;20313;-55
2023/01/31 05:31:12;;;;;;;12.03;2.90;;;7.00;81.40;;;9.93;56.19;101776.53;5036459;28;20199;-53
2023/01/31 05:33:40;;;;;;;19.47;3.10;;;7.00;81.30;;;9.94;56.20;101762.41;5036329;28;20205;-54
2023/01/31 05:36:08;;;;;;;10.27;3.07;;;7.00;81.20;;;9.92;56.65;101766.97;5035197;28;20186;-53
2023/01/31 05:38:35;;;;;;;9.27;2.53;;;7.10;81.30;;;9.95;56.61;101769.31;5036274;28;20233;-53
2023/01/31 05:41:01;;;;;;;17.50;3.37;;;7.00;81.20;;;9.96;56.63;101766.53;5036143;28;20249;-54
2023/01/31 05:43:29;;;;;;;9.90;3.20;;;7.10;81.40;;;9.99;56.59;101765.41;5036439;28;20274;-54
2023/01/31 05:45:55;;;;;;;10.13;3.33;;;7.10;81.30;;;10.06;56.17;101766.50;5051265;28;20252;-54
2023/01/31 05:48:22;;;;;;;11.17;3.13;;;7.10;81.40;;;10.05;56.49;101770.13;5036114;28;20769;-55
2023/01/31 05:50:51;;;;;;;11.23;3.00;;;7.10;81.20;;;10.06;56.30;101756.81;5036385;28;20299;-54
2023/01/31 05:53:17;;;;;;;9.63;2.50;;;7.20;81.20;;;10.11;55.82;101765.13;5036557;28;20589;-53
2023/01/31 05:55:46;;;;;;;9.73;2.70;;;7.20;81.10;;;10.13;56.17;101763.19;5035610;28;20250;-54
2023/01/31 05:58:13;;;;;;;13.30;3.03;;;7.20;81.00;;;10.18;56.23;101765.38;5036586;28;20257;-55
2023/01/31 06:00:40;;;;;;;9.83;2.90;;;7.20;81.20;;;10.22;55.86;101772.00;5036104;28;20218;-54
2023/01/31 06:03:08;;;;;;;12.70;2.53;;;7.20;81.10;;;10.24;56.16;101758.69;5036262;28;20550;-53
2023/01/31 06:05:35;;;;;;;11.50;3.43;;;7.30;81.10;;;10.26;55.99;101762.84;5035997;28;20186;-52
2023/01/31 06:08:04;;;;;;;11.30;3.57;;;7.30;81.00;;;10.27;55.92;101756.59;5036342;28;20237;-56
2023/01/31 06:10:31;;;;;;;12.43;3.47;;;7.30;81.10;;;10.28;55.91;101750.34;5036353;28;20202;-52
2023/01/31 06:12:57;;;;;;;13.77;3.23;;;7.30;81.00;;;10.31;55.66;101747.44;5036281;28;20222;-54
2023/01/31 06:15:25;;;;;;;13.87;3.67;;;7.30;81.00;;;10.37;55.53;101748.63;5035722;28;20229;-54
2023/01/31 06:17:52;;;;;;;12.57;3.00;;;7.40;81.10;;;10.41;55.48;101750.81;5035842;28;20241;-54
2023/01/31 06:20:19;;;;;;;9.93;3.23;;;7.40;81.20;;;10.43;55.42;101732.25;5035900;28;20191;-56
2023/01/31 06:22:46;;;;;;;11.93;2.87;;;7.40;81.10;;;10.46;55.75;101740.69;5035889;28;20190;-54
2023/01/31 06:25:14;;;;;;;7.77;2.80;;;7.50;81.00;;;10.46;55.53;101738.03;5035886;28;20655;-52
2023/01/31 06:27:42;;;;;;;9.27;4.37;;;7.50;80.90;;;10.49;55.48;101743.00;5035961;28;20229;-55
2023/01/31 06:30:10;;;;;;;12.77;4.17;;;7.50;81.00;;;10.47;55.80;101737.06;5036145;28;20190;-52
2023/01/31 06:32:37;;;;;;;16.57;3.40;;;7.50;81.10;;;10.46;55.57;101724.88;5035535;28;20258;-52
2023/01/31 06:35:05;;;;;;;11.57;3.70;;;7.50;81.20;;;10.46;55.89;101718.81;5034682;28;20265;-53
2023/01/31 06:37:32;;;;;;;17.37;4.53;;;7.50;81.10;;;10.42;56.20;101715.66;5033395;28;20300;-55
2023/01/31 06:39:59;;;;;;;8.87;3.47;;;7.60;81.20;;;10.43;55.66;101708.59;5035452;28;20209;-53
2023/01/31 06:42:27;;;;;;;10.07;3.90;;;7.50;81.10;;;10.42;56.25;101710.38;5035048;28;20214;-56
2023/01/31 06:44:54;;;;;;;17.80;4.17;;;7.60;81.30;;;10.41;55.84;101703.44;5034876;28;20205;-54
2023/01/31 06:47:22;;;;;;;13.93;4.57;;;7.50;81.40;;;10.41;55.88;101698.19;5035251;28;20317;-54
2023/01/31 06:49:49;;;;;;;11.93;3.83;;;7.50;81.60;;;10.44;56.57;101686.53;5034600;28;20232;-52
2023/01/31 06:52:16;;;;;;;15.20;4.97;;;7.60;81.80;;;10.46;56.26;101688.03;5034920;28;20208;-54
2023/01/31 06:54:43;;;;;;;16.80;6.03;;;7.50;82.00;;;10.49;56.80;101681.66;5034680;28;20659;-53
2023/01/31 06:57:09;;;;;;;14.97;5.03;;;7.60;82.10;;;10.52;56.41;101674.28;5033922;28;20648;-53
2023/01/31 06:59:38;;;;;;;11.20;4.00;;;7.60;82.20;;;10.54;56.61;101656.53;5034331;28;20710;-54
2023/01/31 07:02:05;;;;;;;15.30;4.67;;;7.60;82.10;;;10.53;56.82;101660.13;5034573;28;20191;-54
2023/01/31 07:04:32;;;;;;;9.87;4.90;;;7.60;81.90;;;10.51;56.14;101648.09;5034142;28;20205;-52
2023/01/31 07:06:59;;;;;;;15.67;5.23;;;7.70;82.00;;;10.51;56.34;101648.94;5034436;28;20200;-57
2023/01/31 07:09:25;;;;;;;14.50;5.10;;;7.60;81.80;;;10.52;56.71;101658.50;5034205;28;20213;-53
2023/01/31 07:11:52;;;;;;;19.30;5.70;;;7.60;81.90;;;10.52;56.50;101642.72;5034915;28;20183;-53
2023/01/31 07:14:19;;;;;;;16.77;4.87;;;7.60;81.80;;;10.51;56.42;101651.56;5034570;28;20190;-54
2023/01/31 07:16:48;;;;;;;16.57;5.60;;;7.60;81.90;;;10.52;56.89;101653.25;5034737;28;20266;-52
2023/01/31 07:19:15;;;;;;;15.63;5.10;;;7.60;82.10;;;10.56;56.57;101638.78;5033909;28;20689;-56
2023/01/31 07:21:43;;;;;;;17.50;4.93;;;7.70;82.10;;;10.59;56.95;101632.41;5034604;28;20203;-52
2023/01/31 07:24:10;;;;;;;15.70;4.97;;;7.70;81.90;;;10.59;56.20;101617.44;5034849;28;20582;-54
2023/01/31 07:26:37;;;;;;;16.83;5.17;;;7.70;81.80;;;10.59;56.33;101627.13;5034571;28;20198;-53
2023/01/31 07:29:04;;;;;;;13.40;4.63;;;7.70;81.80;;;10.60;56.72;101631.44;5034461;28;20293;-53
2023/01/31 07:31:31;;;;;;;15.60;4.97;;;7.80;81.80;;;10.64;56.46;101633.59;5034299;28;20200;-56
2023/01/31 07:34:00;;;;;;;13.90;4.97;;;7.80;81.90;;;10.69;56.37;101633.97;5035622;28;20248;-52
2023/01/31 07:36:27;;;;;;;12.63;5.13;;;7.80;82.00;;;10.73;56.32;101627.41;5032362;28;20202;-54
2023/01/31 07:38:56;;;;;;;15.77;4.80;;;7.80;81.90;;;10.76;56.03;101629.75;5034417;28;20218;-53
2023/01/31 07:41:24;;;;;;;17.57;5.03;;;7.80;81.90;;;10.79;56.21;101607.53;5033982;28;20197;-53
2023/01/31 07:43:51;;;;;;;21.67;6.43;;;7.80;81.70;;;10.79;56.07;101624.16;5034318;28;20205;-53
2023/01/31 07:46:19;;;;;;;19.60;6.47;;;7.90;81.70;;;10.75;56.61;101608.81;5033735;28;20194;-53
2023/01/31 07:48:46;;;;;;;13.00;5.07;;;7.90;81.70;;;10.75;56.72;101593.84;5033750;28;20218;-53
2023/01/31 07:51:14;;;;;;;13.43;6.13;;;7.90;81.70;;;10.77;56.18;101605.03;5034311;28;20647;-53
2023/01/31 07:53:42;;;;;;;17.07;5.90;;;7.90;81.70;;;10.78;56.09;101617.25;5034149;28;20607;-54
2023/01/31 07:56:13;;;;;;;11.93;5.00;;;7.90;81.80;;;10.80;56.54;101607.38;5033625;28;20278;-53
2023/01/31 07:58:42;;;;;;;15.87;5.70;;;7.90;81.80;;;10.86;56.86;101583.03;5033635;28;20214;-53
2023/01/31 08:04:00;;;;;;;17.50;5.80;;;7.90;81.90;;;10.87;56.73;101595.25;5034126;28;20202;-53
2023/01/31 08:06:52;;;;;;;14.57;5.27;;;7.90;81.90;;;10.86;56.81;101567.25;5033864;28;20193;-53
2023/01/31 08:09:19;;;;;;;18.77;6.27;;;8.00;82.00;;;10.89;56.91;101564.31;5033561;28;20222;-53
2023/01/31 08:11:46;;;;;;;17.37;6.20;;;8.00;82.10;;;10.88;56.65;101557.41;5034136;28;20190;-53
2023/01/31 08:14:13;;;;;;;14.83;5.40;;;8.00;82.10;;;10.94;56.15;101552.47;5034513;28;20198;-53
2023/01/31 08:16:40;;;;;;;12.73;5.20;;;8.00;83.00;;;10.98;56.47;101538.03;5034050;28;20226;-59
2023/01/31 08:19:07;;;;;;;17.57;5.90;;;8.00;82.20;;;11.00;56.94;101538.69;5033828;28;20233;-55
2023/01/31 08:21:34;;;;;;;16.97;6.47;;;8.00;82.30;;;11.01;56.51;101537.69;5034162;28;20273;-53
2023/01/31 08:24:03;;;;;;;12.23;6.13;;;8.10;82.40;;;11.03;56.67;101525.22;5033371;28;20582;-53
2023/01/31 08:26:30;;;;;;;16.27;6.00;;;8.10;82.40;;;11.02;56.40;101523.56;5032770;28;20509;-53
2023/01/31 08:28:58;;;;;;;15.50;6.27;;;8.10;82.40;;;11.03;56.71;101510.22;5034159;28;20206;-53
2023/01/31 08:31:27;;;;;;;13.40;6.23;;;8.10;82.50;;;11.04;56.54;101505.78;5033917;28;20570;-53
2023/01/31 08:33:56;;;;;;;16.20;6.87;;;8.10;82.80;;;11.06;56.59;101498.53;5033296;28;20205;-54
2023/01/31 08:36:26;;;;;;;17.10;7.13;;;8.10;82.80;;;11.07;56.99;101494.94;5032860;28;20635;-54
2023/01/31 08:38:54;;;;;;;22.07;7.50;;;8.20;83.00;;;11.07;57.26;101487.03;5033632;28;20222;-53
2023/01/31 08:41:25;;;;;;;17.07;7.17;;;8.20;83.10;;;11.09;57.30;101490.31;5032866;28;20199;-53
2023/01/31 08:43:54;;;;;;;16.80;7.30;;;8.20;83.20;;;11.13;56.89;101491.63;5033025;28;20194;-53
2023/01/31 08:46:26;;;;;;;17.23;7.20;;;8.20;83.50;;;11.15;56.99;101481.78;5032990;28;20301;-56
2023/01/31 08:48:54;;;;;;;16.60;6.83;;;8.20;83.70;;;11.14;57.46;101490.66;5032971;28;20220;-53
2023/01/31 08:51:22;;;;;;;18.37;7.17;;;8.20;83.60;;;11.12;57.46;101492.66;5033532;28;20225;-54
2023/01/31 08:53:49;;;;;;;15.63;8.23;;;8.20;83.60;;;11.11;57.23;101494.44;5033641;28;20221;-53
2023/01/31 08:56:20;;;;;;;20.73;7.43;;;8.30;83.70;;;11.13;57.33;101483.75;5033252;28;20190;-54
2023/01/31 08:58:48;;;;;;;15.43;7.50;;;8.30;83.80;;;11.18;57.50;101481.44;5033499;28;20687;-55
2023/01/31 09:01:18;;;;;;;12.83;6.50;;;8.30;83.90;;;11.24;57.68;101480.84;5020426;28;20261;-55
2023/01/31 09:03:46;;;;;;;19.73;8.27;;;8.30;84.10;;;11.26;57.72;101473.59;5014092;28;20219;-55
2023/01/31 09:06:17;;;;;;;14.97;8.13;;;8.30;84.10;;;11.27;57.29;101475.22;5031111;28;20714;-53
2023/01/31 09:08:44;;;;;;;23.87;8.97;;;8.40;84.10;;;11.21;57.67;101465.34;5033552;28;20345;-60
2023/01/31 09:11:16;;;;;;;16.33;7.87;;;8.40;84.00;;;11.23;57.86;101477.38;5029721;28;20647;-53
2023/01/31 09:13:44;;;;;;;15.10;8.27;;;8.40;83.90;;;11.29;57.53;101468.00;5036643;28;20185;-52
2023/01/31 09:16:13;;;;;;;19.23;7.73;;;8.40;83.90;;;11.33;57.47;101464.06;5041173;28;20202;-55
2023/01/31 09:18:41;;;;;;;16.43;7.93;;;8.50;84.00;;;11.37;57.94;101462.72;5041434;28;20329;-54
2023/01/31 09:21:11;;;;;;;16.97;7.13;;;8.50;84.00;;;11.38;57.53;101467.03;5038757;28;20198;-55
2023/01/31 09:23:39;;;;;;;15.47;7.63;;;8.50;84.00;;;11.39;58.07;101461.59;5037050;28;20239;-55
2023/01/31 09:26:10;;;;;;;15.20;7.20;;;8.60;84.20;;;11.42;57.82;101449.91;5035236;28;20221;-56
2023/01/31 09:28:38;;;;;;;17.77;8.60;;;8.60;84.20;;;11.43;57.97;101464.75;5038821;28;20222;-56
2023/01/31 09:31:09;;;;;;;13.53;6.97;;;8.60;84.20;;;11.46;57.94;101461.75;5039349;28;20206;-54
2023/01/31 09:33:37;;;;;;;21.67;8.33;;;8.60;84.40;;;11.46;58.10;101467.03;5043786;28;20209;-54
2023/01/31 09:36:07;;;;;;;16.20;8.37;;;8.60;84.80;;;11.44;58.03;101455.81;5041675;28;20194;-56
2023/01/31 09:38:35;;;;;;;15.10;8.00;;;8.60;84.50;;;11.47;58.48;101444.97;5041626;28;20583;-54
2023/01/31 09:41:13;;;;;;;13.80;7.87;;;8.70;84.70;;;11.51;57.75;101454.19;5037883;28;20214;-54
2023/01/31 09:43:48;;;;;;;15.97;8.33;;;8.70;84.60;;;11.52;58.11;101447.94;5038644;28;20205;-53
2023/01/31 09:46:22;;;;;;;20.20;8.60;;;8.70;84.90;;;11.54;58.27;101448.59;5038307;28;20259;-56
2023/01/31 09:48:54;;;;;;;16.17;7.47;;;8.70;84.90;;;11.53;58.27;101447.75;5024155;28;20248;-55
2023/01/31 09:51:22;;;;;;;12.17;8.63;;;8.70;84.90;;;11.55;58.39;101437.06;5036005;28;20198;-55
2023/01/31 09:53:50;;;;;;;12.60;8.07;;;8.70;85.10;;;11.57;58.06;101443.00;5037011;28;20232;-56
2023/01/31 09:56:33;;;;;;;17.90;8.73;;;8.70;85.10;;;11.51;58.97;101441.00;5039676;28;20223;-56
2023/01/31 09:59:17;;;;;;;15.10;8.17;;;8.70;85.00;;;11.53;58.95;101433.75;5027235;28;20320;-54
2023/01/31 10:02:03;;;;;;;17.50;9.33;;;8.70;85.40;;;11.54;58.68;101422.22;5032378;28;20217;-55
2023/01/31 10:04:53;;;;;;;12.37;8.10;;;8.70;85.70;;;11.50;59.21;101410.38;5037190;28;20264;-55
2023/01/31 10:07:30;;;;;;;14.50;8.67;;;8.70;85.80;;;11.50;59.14;101403.28;5018085;28;20269;-56
2023/01/31 10:10:12;;;;;;;12.30;8.17;;;8.70;85.80;;;11.50;59.54;101397.19;5040394;28;20203;-55
2023/01/31 10:12:46;;;;;;;18.47;9.90;;;8.70;86.00;;;11.50;59.47;101400.63;5039438;28;20262;-55
2023/01/31 10:15:26;;;;;;;14.03;7.83;;;8.80;86.10;;;11.52;59.64;101400.50;5032794;28;20194;-56
2023/01/31 10:18:01;;;;;;;14.73;7.97;;;8.80;86.20;;;11.52;59.61;101400.50;5040307;28;20233;-53
2023/01/31 10:20:37;;;;;;;23.10;9.53;;;8.70;86.50;;;11.51;59.28;101389.13;5019777;28;20598;-55
2023/01/31 10:23:12;;;;;;;17.77;8.93;;;8.70;86.50;;;11.47;59.85;101392.25;5035464;28;20651;-56
2023/01/31 10:25:47;;;;;;;14.57;8.37;;;8.70;86.50;;;11.46;59.62;101390.59;5030979;28;20198;-56
2023/01/31 10:28:20;;;;;;;17.67;8.10;;;8.70;86.70;;;11.50;59.56;101378.75;5036742;28;20237;-54
2023/01/31 10:30:57;;;;;;;20.13;9.53;;;8.70;86.70;;;11.49;59.84;101391.09;5037246;28;20198;-54
2023/01/31 10:33:37;;;;;;;14.60;7.70;;;8.70;86.80;;;11.50;59.37;101386.66;5037288;28;20229;-57
2023/01/31 10:36:21;;;;;;;16.87;8.83;;;8.70;86.80;;;11.47;59.78;101381.69;5030146;28;20214;-55
2023/01/31 10:39:01;;;;;;;15.67;8.50;;;8.70;87.00;;;11.48;59.96;101378.88;5037530;28;20293;-56